createdAt,value
2019-05-01T16:26:17.983Z,87.40
2019-05-01T16:28:47.539Z,88.50
2019-05-01T16:31:16.993Z,88.70
2019-05-01T16:33:46.757Z,87.60
2019-05-01T16:36:16.012Z,86.20
2019-05-01T16:39:04.225Z,85.30
2019-05-01T16:41:33.693Z,88.10
2019-05-01T16:44:03.096Z,87.50
2019-05-01T16:46:32.564Z,89.40
2019-05-01T16:49:02.862Z,85.50
2019-05-01T16:51:32.088Z,79.90
2019-05-01T16:54:01.592Z,82.20
2019-05-01T16:56:33.118Z,80.70
2019-05-01T16:59:02.469Z,83.40
2019-05-01T17:01:58.862Z,84.40
2019-05-01T17:04:40.245Z,86.80
2019-05-01T17:07:27.213Z,87.80
2019-05-01T17:10:13.150Z,88.50
2019-05-01T17:12:47.300Z,87.90
2019-05-01T17:15:19.628Z,88.00
2019-05-01T17:17:49.367Z,83.50
2019-05-01T17:20:18.762Z,85.60
2019-05-01T17:22:50.823Z,83.30
2019-05-01T17:25:19.150Z,81.30
2019-05-01T17:27:48.294Z,84.20
2019-05-01T17:30:21.204Z,85.50
2019-05-01T17:32:50.568Z,82.60
2019-05-01T17:35:19.695Z,85.00
2019-05-01T17:37:49.167Z,85.70
2019-05-01T17:40:18.292Z,86.80
2019-05-01T17:42:47.664Z,83.10
2019-05-01T17:45:17.267Z,85.10
2019-05-01T17:47:46.727Z,84.70
2019-05-01T17:50:16.408Z,84.10
2019-05-01T17:52:47.567Z,84.00
2019-05-01T17:55:16.696Z,85.40
2019-05-01T17:57:46.132Z,87.80
2019-05-01T18:00:37.550Z,87.70
2019-05-01T18:03:17.979Z,86.80
2019-05-01T18:06:12.754Z,87.80
2019-05-01T18:08:41.947Z,89.70
2019-05-01T18:11:14.261Z,88.20
2019-05-01T18:13:42.108Z,89.80
2019-05-01T18:16:11.516Z,88.70
2019-05-01T18:18:40.648Z,88.10
2019-05-01T18:21:11.364Z,90.30
2019-05-01T18:24:18.950Z,90.50
2019-05-01T18:27:14.622Z,88.40
2019-05-01T18:29:46.800Z,88.00
2019-05-01T18:32:41.511Z,89.80
2019-05-01T18:35:13.999Z,88.00
2019-05-01T18:38:06.193Z,87.80
2019-05-01T18:40:39.789Z,88.00
2019-05-01T18:43:09.766Z,88.60
2019-05-01T18:45:53.510Z,89.10
2019-05-01T18:48:23.920Z,89.50
2019-05-01T18:50:54.635Z,90.00
2019-05-01T18:53:24.616Z,90.00
2019-05-01T18:55:54.014Z,90.60
2019-05-01T18:58:23.127Z,90.80
2019-05-01T19:00:52.583Z,92.60
2019-05-01T19:03:22.589Z,93.40
2019-05-01T19:05:51.866Z,94.10
2019-05-01T19:08:20.980Z,94.50
2019-05-01T19:10:50.670Z,94.80
2019-05-01T19:13:20.063Z,95.00
2019-05-01T19:15:49.217Z,95.30
2019-05-01T19:18:18.685Z,95.40
2019-05-01T19:20:58.834Z,95.40
2019-05-01T19:23:22.253Z,95.60
2019-05-01T19:25:49.927Z,95.80
2019-05-01T19:28:19.828Z,95.70
2019-05-01T19:30:48.967Z,95.80
2019-05-01T19:33:18.090Z,96.00
2019-05-01T19:35:47.326Z,96.10
2019-05-01T19:38:16.628Z,96.30
2019-05-01T19:40:46.331Z,96.30
2019-05-01T19:43:15.436Z,96.30
2019-05-01T19:45:44.962Z,96.40
2019-05-01T19:48:14.177Z,96.60
2019-05-01T19:50:47.929Z,96.40
2019-05-01T19:53:14.997Z,96.40
2019-05-01T19:55:46.714Z,96.70
2019-05-01T19:58:15.939Z,96.80
2019-05-01T20:00:54.574Z,96.80
2019-05-01T20:03:23.806Z,96.90
2019-05-01T20:05:53.281Z,97.00
2019-05-01T20:08:22.726Z,97.10
2019-05-01T20:10:52.185Z,97.40
2019-05-01T20:13:21.307Z,97.70
2019-05-01T20:15:51.061Z,98.00
2019-05-01T20:18:20.522Z,97.80
2019-05-01T20:20:49.655Z,97.70
2019-05-01T20:23:19.063Z,97.70
2019-05-01T20:25:50.915Z,97.90
2019-05-01T20:28:20.478Z,98.20
2019-05-01T20:30:50.695Z,98.60
2019-05-01T20:33:20.082Z,98.50
2019-05-01T20:35:49.555Z,98.60
2019-05-01T20:38:18.946Z,98.40
2019-05-01T20:40:48.146Z,98.70
2019-05-01T20:43:17.270Z,98.90
2019-05-01T20:45:49.506Z,99.30
2019-05-01T20:48:18.389Z,99.50
2019-05-01T20:50:48.468Z,99.20
2019-05-01T20:53:17.996Z,99.50
2019-05-01T20:55:54.975Z,99.90
2019-05-01T20:58:24.420Z,99.90
2019-05-01T21:00:58.020Z,99.90
2019-05-01T21:03:27.871Z,99.90
2019-05-01T21:06:07.727Z,99.90
2019-05-01T21:08:45.179Z,99.90
2019-05-01T21:11:18.723Z,99.90
2019-05-01T21:13:47.841Z,99.90
2019-05-01T21:16:17.061Z,99.90
2019-05-01T21:18:46.184Z,99.90
2019-05-01T21:21:15.657Z,99.90
2019-05-01T21:23:48.231Z,99.90
2019-05-01T21:26:23.429Z,99.90
2019-05-01T21:28:54.071Z,99.90
2019-05-01T21:31:27.310Z,99.90
2019-05-01T21:33:56.500Z,99.90
2019-05-01T21:36:25.988Z,99.90
2019-05-01T21:38:56.416Z,99.90
2019-05-01T21:41:32.898Z,99.90
2019-05-01T21:44:03.119Z,99.90
2019-05-01T21:46:39.397Z,99.90
2019-05-01T21:49:08.592Z,99.90
2019-05-01T21:51:44.334Z,99.90
2019-05-01T21:54:08.652Z,99.90
2019-05-01T21:56:41.581Z,99.90
2019-05-01T21:59:09.183Z,99.90
2019-05-01T22:01:38.770Z,99.90
2019-05-01T22:04:07.960Z,99.90
2019-05-01T22:06:37.353Z,99.90
2019-05-01T22:09:15.083Z,99.90
2019-05-01T22:11:43.646Z,99.90
2019-05-01T22:14:17.230Z,99.90
2019-05-01T22:16:46.524Z,99.90
2019-05-01T22:19:20.376Z,99.90
2019-05-01T22:22:04.742Z,99.90
2019-05-01T22:24:55.922Z,99.90
2019-05-01T22:27:46.876Z,99.90
2019-05-01T22:30:42.418Z,99.90
2019-05-01T22:33:09.917Z,99.90
2019-05-01T22:35:45.043Z,99.90
2019-05-01T22:38:14.455Z,99.90
2019-05-01T22:41:09.508Z,99.90
2019-05-01T22:43:39.171Z,99.90
2019-05-01T22:46:12.115Z,99.90
2019-05-01T22:48:41.377Z,99.90
2019-05-01T22:51:19.712Z,99.90
2019-05-01T22:53:54.717Z,99.90
2019-05-01T22:56:25.118Z,99.90
2019-05-01T22:58:54.760Z,99.90
2019-05-01T23:01:25.947Z,99.90
2019-05-01T23:04:01.075Z,99.90
2019-05-01T23:06:30.566Z,99.90
2019-05-01T23:08:59.960Z,99.90
2019-05-01T23:11:31.554Z,99.90
2019-05-01T23:14:00.779Z,99.90
2019-05-01T23:16:34.500Z,99.90
2019-05-01T23:19:03.651Z,99.90
2019-05-01T23:21:32.840Z,99.90
2019-05-01T23:24:03.531Z,99.90
2019-05-01T23:26:33.064Z,99.90
2019-05-01T23:29:02.624Z,99.90
2019-05-01T23:31:31.820Z,99.90
2019-05-01T23:34:01.532Z,99.90
2019-05-01T23:36:30.653Z,99.90
2019-05-01T23:39:00.157Z,99.90
2019-05-01T23:41:45.390Z,99.90
2019-05-01T23:44:03.695Z,99.90
2019-05-01T23:46:31.527Z,99.90
2019-05-01T23:49:00.913Z,99.90
2019-05-01T23:51:30.103Z,99.90
2019-05-01T23:53:59.507Z,99.90
2019-05-01T23:56:31.112Z,99.90
2019-05-01T23:59:00.376Z,99.90
